الصفحة الرئيسية
صور الأقمار الصناعية توقعات الطقس لمدة 15 يوممناخالتوقعات البحرية إعصار برق مطارأسئلة وأجوبة النشرة الإخبارية حول
طقس : أوروبا أفريقيا أمريكا الشمالية أمريكا الجنوبية آسيا أستراليا-أوقيانوسيا آخرون
لغات جهة اتصال

سكاكا, السعودية

دائرة عرض: 29-47N, خط طول: 040-06E, ارتفاع: 689 m


METAR: OESK 271800Z 12003KT CAVOK 12/00 Q1020 NOSIG
TAF: OESK 271030Z 2712/2818 28014KT 7000 SCT040 SCT100 BECMG 2718/2720 VRB04KT TEMPO 2800/2806 3000 RA/BR SCT020

زمن: 22:14 (19:14 UTC)

مراقبة الطقس الحالي

تاريخ و وقت الإصدار 1 ساعة و 14 دقيقة قبل الساعة 18:00 UTC
ريح 3 kt من الشرق/الجنوب الشرقي
درجة الحرارة 12°C
الرطوبة 44%
ضغط 1020 hPa
الرؤية 10 كم أو أكثر
الغيوم لا تقل 1500 م وليس السحاب الأسود

تغيير وحدة

توقعات

تاريخ و وقت الإصدار 8 ساعات و 44 دقيقة قبل الساعة 10:30 UTC
صالحة من التوقعات 27 في 12 بالتوقيت العالمي إلى 28 في 18 بالتوقيت العالمي
ريح 14 kt من الغرب
الرؤية: 7000 m
غيوم متفرقة على ارتفاع 4000 ft
غيوم متفرقة على ارتفاع 10000 ft
أصبح
من 27 في 18 بالتوقيت العالمي إلى 27 في 20 بالتوقيت العالمي
ريح 4 ktمتغير
مؤقت
من 28 في 00 بالتوقيت العالمي إلى 28 في 06 بالتوقيت العالمي
الرؤية: 3000 m
غيوم متفرقة على ارتفاع 2000 ft
المعلومات الواردة في هذا الموقع يخضع إخلاء
طقس : أوروبا أفريقيا أمريكا الشمالية أمريكا الجنوبية آسيا أستراليا-أوقيانوسيا آخرون
صور الأقمار الصناعية توقعات الطقس لمدة 15 يوممناخالتوقعات البحرية إعصار برق مطارأسئلة وأجوبة لغات جهة اتصال النشرة الإخبارية حول